ケアンズ の空港の天気 - METARとTAF

ケアンズ国際空港 ( YBCS / CNS ) - オーストラリア クイーンズランド州ケアンズ
飛行場実況気象(Metar)
観測時間07/29 12:30 AEST (07/29 02:30 UTC)
風向・風速北東 3m/s
視程10km以上
天気現象
なし
気温26℃
湿度61%
気圧1014hPa
METARYBCS 290230Z AUTO 04006KT 9999 // NCD 26/18 Q1014
過去の天気等 Google飛行場航空写真 Wunderground天気予報

過去48時間のMETAR

飛行場予報(TAF)
発表時間: 7/29 12:07 AEST (7/29 02:07 UTC)
予報対象時間: 29日12時 AEST ~ 30日10時 AEST
風向・風速北東 4m/s
視程10km以上
なし
29日19時 AEST から
風向・風速不定 3m/s
視程10km以上
なし
TAF YBCS 290207Z 2902/3000 05008KT CAVOK
FM290900 VRB05KT CAVOK